Time;durP1;ratioP1;P1;durP2;ratioP2;P2;SDS_P1;SDS_P2;PMS_P1;PMS_P2;Temp;Humidity;BMP_temperature;BMP_pressure;BME280_temperature;BME280_humidity;BME280_pressure;Samples;Min_cycle;Max_cycle;Signal;HPM_P1;HPM_P2
2022/08/02 00:00:55;;;;;;;4.63;2.70;;;20.70;65.70;;;;;;5074005;28;20460;-74
2022/08/02 00:03:22;;;;;;;5.07;3.30;;;20.60;65.80;;;;;;5074177;28;20476;-74
2022/08/02 00:05:49;;;;;;;3.70;3.00;;;20.60;66.00;;;;;;5073747;28;20973;-74
2022/08/02 00:08:16;;;;;;;4.30;2.83;;;20.60;66.00;;;;;;5073696;28;20487;-74
2022/08/02 00:10:44;;;;;;;4.20;3.67;;;20.50;66.10;;;;;;5073810;28;20948;-74
2022/08/02 00:13:11;;;;;;;4.97;3.00;;;20.50;66.40;;;;;;5073463;28;20488;-74
2022/08/02 00:15:38;;;;;;;4.30;3.10;;;20.50;66.60;;;;;;5073891;28;20451;-74
2022/08/02 00:18:05;;;;;;;6.13;3.50;;;20.40;66.60;;;;;;5073994;28;20433;-74
2022/08/02 00:20:31;;;;;;;4.47;3.40;;;20.40;66.70;;;;;;5073783;28;20540;-74
2022/08/02 00:22:58;;;;;;;2.80;2.60;;;20.40;67.20;;;;;;5073733;28;20475;-74
2022/08/02 00:25:25;;;;;;;6.70;3.90;;;20.40;67.30;;;;;;5073846;28;20444;-74
2022/08/02 00:27:53;;;;;;;3.83;3.07;;;20.30;67.50;;;;;;5073746;28;20485;-74
2022/08/02 00:30:20;;;;;;;5.07;3.83;;;20.30;67.80;;;;;;5073694;28;20456;-74
2022/08/02 00:32:47;;;;;;;5.00;3.43;;;20.20;67.90;;;;;;5073016;28;20941;-73
2022/08/02 00:35:14;;;;;;;2.93;2.67;;;20.20;68.20;;;;;;5073315;28;20452;-74
2022/08/02 00:37:41;;;;;;;3.60;3.10;;;20.20;68.50;;;;;;5073751;28;20441;-74
2022/08/02 00:40:10;;;;;;;4.53;3.40;;;20.20;68.70;;;;;;5073291;28;20457;-74
2022/08/02 00:42:37;;;;;;;4.40;2.90;;;20.20;68.80;;;;;;5073474;28;20441;-74
2022/08/02 00:45:06;;;;;;;2.87;2.57;;;20.20;69.00;;;;;;5072205;28;20976;-74
2022/08/02 00:47:33;;;;;;;3.87;3.30;;;20.20;69.30;;;;;;5073633;28;20483;-74
2022/08/02 00:50:00;;;;;;;5.23;3.53;;;20.20;69.50;;;;;;5073512;28;20452;-74
2022/08/02 00:52:27;;;;;;;4.97;2.67;;;20.10;69.60;;;;;;5073503;28;20445;-74
2022/08/02 00:54:54;;;;;;;5.90;3.70;;;20.10;69.60;;;;;;5073419;28;20467;-74
2022/08/02 00:57:20;;;;;;;4.17;3.43;;;19.90;69.20;;;;;;5073539;28;20452;-74
2022/08/02 00:59:47;;;;;;;4.10;2.70;;;19.80;69.20;;;;;;5073094;28;20792;-74
2022/08/02 01:02:16;;;;;;;4.37;3.10;;;19.80;69.40;;;;;;5073373;28;20448;-74
2022/08/02 01:04:42;;;;;;;5.87;3.23;;;19.80;69.80;;;;;;5073219;28;20543;-74
2022/08/02 01:07:09;;;;;;;2.83;2.40;;;19.80;70.10;;;;;;5073281;28;20477;-74
2022/08/02 01:09:36;;;;;;;4.20;3.07;;;19.70;70.20;;;;;;5073292;28;20454;-74
2022/08/02 01:12:03;;;;;;;7.80;3.30;;;19.70;70.10;;;;;;5073302;28;20445;-74
2022/08/02 01:14:30;;;;;;;3.07;2.77;;;19.60;70.30;;;;;;5073254;28;20468;-74
2022/08/02 01:17:03;;;;;;;5.73;2.80;;;19.60;71.00;;;;;;5073137;28;20452;-74
2022/08/02 01:19:38;;;;;;;6.00;2.80;;;19.60;71.30;;;;;;5073189;28;20449;-74
2022/08/02 01:22:40;;;;;;;3.77;2.83;;;19.50;71.50;;;;;;5072805;28;20433;-74
2022/08/02 01:25:15;;;;;;;6.97;3.20;;;19.50;71.90;;;;;;5072987;28;20955;-74
2022/08/02 01:27:51;;;;;;;8.03;3.50;;;19.50;72.30;;;;;;5073109;28;20472;-74
2022/08/02 01:30:20;;;;;;;3.50;3.20;;;19.60;72.40;;;;;;5073186;28;20440;-74
2022/08/02 01:32:55;;;;;;;3.50;2.70;;;19.60;72.60;;;;;;5072942;28;20452;-74
2022/08/02 01:35:27;;;;;;;4.73;3.43;;;19.50;72.90;;;;;;5072731;28;20909;-74
2022/08/02 01:37:59;;;;;;;4.90;2.77;;;19.50;73.00;;;;;;5073673;28;20520;-74
2022/08/02 01:40:29;;;;;;;6.27;3.07;;;19.50;73.10;;;;;;5073598;28;20445;-74
2022/08/02 01:42:57;;;;;;;3.60;2.93;;;19.60;73.50;;;;;;5072886;28;20535;-74
2022/08/02 01:45:30;;;;;;;5.23;3.03;;;19.50;73.50;;;;;;5074776;28;20453;-74
2022/08/02 01:47:58;;;;;;;6.70;3.50;;;19.50;73.60;;;;;;5076719;28;20479;-74
2022/08/02 01:50:31;;;;;;;4.90;3.07;;;19.50;73.60;;;;;;5076763;28;20498;-73
2022/08/02 01:53:01;;;;;;;3.57;3.10;;;19.50;73.90;;;;;;5076705;28;20530;-73
2022/08/02 01:55:32;;;;;;;4.87;2.87;;;19.50;74.00;;;;;;5076635;28;20802;-74
2022/08/02 01:58:01;;;;;;;4.17;3.50;;;19.50;74.20;;;;;;5076451;28;20425;-74
2022/08/02 02:00:33;;;;;;;4.37;3.30;;;19.40;74.10;;;;;;5076544;28;20460;-74
2022/08/02 02:03:02;;;;;;;6.97;3.73;;;19.40;74.40;;;;;;5076450;28;20475;-74
2022/08/02 02:05:32;;;;;;;6.40;3.63;;;19.40;74.60;;;;;;5076095;28;20797;-75
2022/08/02 02:08:01;;;;;;;3.23;2.40;;;19.40;74.70;;;;;;5076318;28;20480;-74
2022/08/02 02:10:31;;;;;;;8.30;3.00;;;19.30;74.40;;;;;;5075886;28;20946;-74
2022/08/02 02:13:02;;;;;;;5.80;3.00;;;19.40;74.40;;;;;;5075937;28;20487;-74
2022/08/02 02:15:32;;;;;;;6.10;3.43;;;19.40;74.30;;;;;;5076400;28;20440;-74
2022/08/02 02:18:02;;;;;;;3.03;2.83;;;19.40;74.20;;;;;;5076079;28;20444;-74
2022/08/02 02:20:30;;;;;;;4.67;3.10;;;19.40;74.00;;;;;;5076279;28;20440;-74
2022/08/02 02:23:00;;;;;;;7.03;3.30;;;19.40;74.00;;;;;;5076156;28;20473;-74
2022/08/02 02:25:27;;;;;;;3.20;2.80;;;19.40;74.10;;;;;;5076164;28;20448;-74
2022/08/02 02:27:57;;;;;;;5.30;3.10;;;19.30;74.10;;;;;;5075985;28;20492;-74
2022/08/02 02:30:28;;;;;;;4.73;3.03;;;19.40;74.30;;;;;;5075916;28;20451;-73
2022/08/02 02:32:59;;;;;;;6.53;3.87;;;19.30;74.30;;;;;;5075892;28;20465;-74
2022/08/02 02:35:30;;;;;;;3.30;2.97;;;19.40;74.50;;;;;;5075778;28;20920;-74
2022/08/02 02:38:01;;;;;;;8.23;3.20;;;19.40;74.50;;;;;;5075733;28;20567;-74
2022/08/02 02:40:29;;;;;;;4.37;3.00;;;19.40;74.50;;;;;;5075928;28;20507;-74
2022/08/02 02:42:59;;;;;;;3.63;2.30;;;19.40;74.50;;;;;;5075808;28;20465;-73
2022/08/02 02:45:27;;;;;;;4.43;2.73;;;19.40;74.30;;;;;;5075786;28;20440;-73
2022/08/02 02:47:57;;;;;;;5.00;2.80;;;19.30;74.30;;;;;;5075689;28;20985;-74
2022/08/02 02:50:25;;;;;;;4.87;3.37;;;19.40;75.00;;;;;;5075747;28;20453;-74
2022/08/02 02:52:52;;;;;;;5.53;3.17;;;19.30;75.00;;;;;;5075819;28;20472;-74
2022/08/02 02:55:19;;;;;;;6.93;3.20;;;19.20;75.00;;;;;;5075302;28;20452;-74
2022/08/02 02:57:47;;;;;;;6.73;3.10;;;19.20;75.10;;;;;;5075661;28;20444;-74
2022/08/02 03:00:15;;;;;;;3.60;2.40;;;19.20;74.90;;;;;;5075172;28;20982;-74
2022/08/02 03:02:43;;;;;;;4.20;3.27;;;19.20;74.50;;;;;;5075136;28;20957;-74
2022/08/02 03:05:12;;;;;;;7.20;3.00;;;19.10;74.40;;;;;;5075056;28;20448;-74
2022/08/02 03:07:40;;;;;;;5.30;2.90;;;19.10;74.50;;;;;;5075106;28;20483;-74
2022/08/02 03:10:08;;;;;;;5.13;3.37;;;19.10;74.70;;;;;;5074939;28;20456;-74
2022/08/02 03:12:36;;;;;;;5.43;2.67;;;19.00;74.80;;;;;;5075048;28;20465;-73
2022/08/02 03:15:06;;;;;;;6.33;2.77;;;19.00;74.80;;;;;;5075428;28;20832;-73
2022/08/02 03:17:42;;;;;;;7.13;2.77;;;19.00;74.90;;;;;;5075420;28;20433;-73
2022/08/02 03:20:14;;;;;;;3.60;2.47;;;18.90;74.80;;;;;;5075234;28;20506;-73
2022/08/02 03:22:41;;;;;;;2.00;1.80;;;18.90;74.90;;;;;;5075085;28;20433;-74
2022/08/02 03:25:09;;;;;;;4.67;2.37;;;18.80;74.40;;;;;;5075139;28;20444;-74
2022/08/02 03:27:36;;;;;;;3.07;2.73;;;18.80;74.20;;;;;;5075171;28;20520;-74
2022/08/02 03:30:06;;;;;;;5.03;2.90;;;18.70;74.20;;;;;;5075187;28;20456;-73
2022/08/02 03:32:34;;;;;;;4.83;3.00;;;18.70;74.20;;;;;;5074917;28;20445;-75
2022/08/02 03:35:02;;;;;;;9.67;2.53;;;18.60;74.70;;;;;;5074989;28;20457;-73
2022/08/02 03:37:31;;;;;;;4.97;2.70;;;18.60;74.30;;;;;;5074883;28;20448;-75
2022/08/02 03:39:58;;;;;;;4.87;2.60;;;18.60;74.50;;;;;;5074778;28;20441;-74
2022/08/02 03:42:27;;;;;;;2.97;2.67;;;18.60;74.70;;;;;;5074746;28;20494;-74
2022/08/02 03:44:56;;;;;;;3.60;3.20;;;18.60;74.80;;;;;;5074217;28;20476;-74
2022/08/02 03:47:23;;;;;;;4.43;3.20;;;18.60;74.90;;;;;;5074251;28;20452;-74
2022/08/02 03:49:52;;;;;;;5.40;2.63;;;18.60;75.10;;;;;;5074352;28;20441;-74
2022/08/02 03:52:19;;;;;;;3.33;3.00;;;18.60;75.40;;;;;;5074267;28;20967;-74
2022/08/02 03:54:47;;;;;;;4.80;3.00;;;18.60;75.50;;;;;;5074105;28;20449;-73
2022/08/02 03:57:14;;;;;;;5.20;3.07;;;18.60;75.80;;;;;;5074507;28;20828;-74
2022/08/02 03:59:42;;;;;;;4.80;3.30;;;18.50;75.60;;;;;;5074341;28;20805;-74
2022/08/02 04:02:09;;;;;;;6.77;3.10;;;18.50;75.80;;;;;;5074198;28;20441;-74
2022/08/02 04:04:36;;;;;;;4.30;2.70;;;18.40;75.70;;;;;;5073795;28;20852;-74
2022/08/02 04:07:03;;;;;;;6.23;3.00;;;18.50;76.00;;;;;;5074001;28;20479;-74
2022/08/02 04:09:31;;;;;;;3.30;3.00;;;18.40;75.90;;;;;;5073626;28;21018;-74
2022/08/02 04:11:59;;;;;;;5.73;3.40;;;18.40;76.00;;;;;;5073939;28;20452;-74
2022/08/02 04:14:27;;;;;;;9.40;3.83;;;18.40;76.10;;;;;;5074102;28;20480;-74
2022/08/02 04:16:58;;;;;;;7.90;2.87;;;18.40;76.40;;;;;;5073933;28;20448;-75
2022/08/02 04:19:30;;;;;;;4.10;3.00;;;18.40;76.60;;;;;;5073991;28;20441;-74
2022/08/02 04:21:59;;;;;;;4.80;3.00;;;18.50;76.90;;;;;;5074052;28;20447;-74
2022/08/02 04:24:30;;;;;;;4.80;3.30;;;18.50;77.10;;;;;;5073526;28;20505;-74
2022/08/02 04:27:00;;;;;;;7.67;3.67;;;18.50;77.40;;;;;;5073619;28;20422;-74
2022/08/02 04:29:27;;;;;;;7.73;3.57;;;18.40;78.20;;;;;;5073712;28;20489;-73
2022/08/02 04:31:54;;;;;;;8.27;4.57;;;18.40;77.60;;;;;;5073436;28;20941;-73
2022/08/02 04:34:21;;;;;;;6.20;3.87;;;18.40;77.80;;;;;;5073653;28;20469;-74
2022/08/02 04:36:48;;;;;;;10.57;4.10;;;18.40;78.30;;;;;;5073465;28;20824;-74
2022/08/02 04:39:15;;;;;;;6.43;3.50;;;18.50;78.90;;;;;;5073454;28;20445;-74
2022/08/02 04:41:43;;;;;;;4.33;3.73;;;18.50;78.90;;;;;;5073570;28;20453;-73
2022/08/02 04:44:12;;;;;;;6.30;4.00;;;18.50;79.10;;;;;;5073731;28;20518;-74
2022/08/02 04:46:39;;;;;;;8.57;4.03;;;18.50;79.20;;;;;;5073662;28;20503;-74
2022/08/02 04:49:06;;;;;;;6.33;4.23;;;18.60;79.50;;;;;;5073246;28;20829;-73
2022/08/02 04:51:34;;;;;;;7.10;4.10;;;18.60;79.90;;;;;;5073507;28;20441;-74
2022/08/02 04:54:01;;;;;;;9.50;4.27;;;18.60;80.20;;;;;;5073402;28;20524;-75
2022/08/02 04:56:28;;;;;;;8.83;4.00;;;18.60;80.80;;;;;;5073600;28;20448;-75
2022/08/02 04:58:55;;;;;;;7.27;4.87;;;18.70;81.10;;;;;;5073379;28;20802;-74
2022/08/02 05:01:23;;;;;;;8.17;4.20;;;18.70;81.30;;;;;;5073280;28;20453;-74
2022/08/02 05:03:50;;;;;;;6.73;4.40;;;18.70;81.60;;;;;;5072986;28;20475;-73
2022/08/02 05:06:18;;;;;;;4.27;3.60;;;18.80;81.90;;;;;;5073168;28;20456;-74
2022/08/02 05:08:45;;;;;;;4.10;3.70;;;18.80;82.30;;;;;;5073099;28;20484;-74
2022/08/02 05:11:12;;;;;;;6.57;4.13;;;18.90;82.60;;;;;;5073797;28;20445;-74
2022/08/02 05:13:40;;;;;;;8.33;4.40;;;19.00;83.00;;;;;;5073004;28;20877;-73
2022/08/02 05:16:07;;;;;;;6.83;3.87;;;19.00;83.10;;;;;;5073402;28;20451;-74
2022/08/02 05:18:35;;;;;;;7.23;4.37;;;19.10;83.20;;;;;;5073720;28;20445;-74
2022/08/02 05:21:02;;;;;;;10.30;4.73;;;19.20;83.40;;;;;;5077328;28;20937;-73
2022/08/02 05:23:29;;;;;;;5.00;3.50;;;19.30;84.50;;;;;;5077308;28;20468;-73
2022/08/02 05:25:56;;;;;;;4.67;4.27;;;19.50;84.40;;;;;;5077505;28;20455;-74
2022/08/02 05:28:23;;;;;;;5.40;3.90;;;19.50;84.70;;;;;;5077177;28;20997;-73
2022/08/02 05:30:50;;;;;;;5.57;4.17;;;19.60;85.00;;;;;;5077389;28;20478;-74
2022/08/02 05:33:17;;;;;;;6.07;4.47;;;19.70;85.00;;;;;;5077348;28;20468;-74
2022/08/02 05:35:45;;;;;;;7.17;4.43;;;19.80;85.20;;;;;;5077289;28;20459;-74
2022/08/02 05:38:12;;;;;;;8.30;4.27;;;19.80;85.20;;;;;;5077287;28;20445;-74
2022/08/02 05:40:39;;;;;;;5.00;4.03;;;19.80;85.40;;;;;;5076932;28;20449;-73
2022/08/02 05:43:12;;;;;;;7.37;4.43;;;19.90;85.40;;;;;;5077036;28;20469;-74
2022/08/02 05:45:39;;;;;;;5.87;4.10;;;20.00;85.30;;;;;;5076991;28;20433;-74
2022/08/02 05:48:06;;;;;;;5.00;4.13;;;20.00;85.20;;;;;;5076826;28;20492;-74
2022/08/02 05:50:37;;;;;;;8.00;5.30;;;20.10;85.40;;;;;;5076986;28;20456;-73
2022/08/02 05:53:18;;;;;;;5.27;4.80;;;20.10;85.10;;;;;;5076895;28;20476;-74
2022/08/02 05:55:52;;;;;;;7.30;4.20;;;20.10;86.10;;;;;;5076864;28;20445;-74
2022/08/02 05:58:27;;;;;;;4.40;3.80;;;20.20;85.30;;;;;;5076765;28;20437;-74
2022/08/02 06:00:56;;;;;;;4.47;4.07;;;20.20;84.80;;;;;;5076640;28;20436;-74
2022/08/02 06:03:25;;;;;;;7.50;4.10;;;20.30;84.40;;;;;;5076591;28;20469;-74
2022/08/02 06:05:59;;;;;;;8.90;5.13;;;20.30;84.50;;;;;;5076510;28;20445;-74
2022/08/02 06:08:33;;;;;;;6.13;4.63;;;20.40;84.70;;;;;;5076462;28;20854;-75
2022/08/02 06:11:02;;;;;;;9.00;5.90;;;20.50;85.00;;;;;;5076214;28;20429;-74
2022/08/02 06:13:29;;;;;;;9.67;6.00;;;20.50;84.70;;;;;;5076139;28;20492;-75
2022/08/02 06:15:58;;;;;;;11.80;5.10;;;20.60;84.10;;;;;;5076480;28;20447;-75
2022/08/02 06:18:27;;;;;;;6.33;4.47;;;20.70;83.90;;;;;;5076272;28;20471;-75
2022/08/02 06:20:56;;;;;;;12.60;5.40;;;20.80;83.60;;;;;;5076042;28;20937;-74
2022/08/02 06:23:23;;;;;;;8.90;4.87;;;20.80;83.50;;;;;;5076197;28;20472;-75
2022/08/02 06:25:53;;;;;;;7.30;4.30;;;20.90;83.80;;;;;;5076093;28;20488;-75
2022/08/02 06:28:20;;;;;;;8.30;4.40;;;21.00;83.90;;;;;;5076238;28;20476;-75
2022/08/02 06:30:48;;;;;;;10.27;4.30;;;21.10;83.30;;;;;;5075297;28;20498;-74
2022/08/02 06:33:15;;;;;;;5.80;3.83;;;21.20;82.70;;;;;;5075559;28;21028;-74
2022/08/02 06:35:46;;;;;;;8.70;4.23;;;21.30;82.40;;;;;;5075877;28;20452;-74
2022/08/02 06:38:18;;;;;;;7.07;3.90;;;21.40;82.20;;;;;;5076140;28;20433;-74
2022/08/02 06:40:48;;;;;;;6.43;3.53;;;21.50;81.80;;;;;;5075956;28;20491;-74
2022/08/02 06:43:23;;;;;;;4.13;3.17;;;21.70;80.40;;;;;;5075901;28;20477;-75
2022/08/02 06:45:49;;;;;;;4.83;3.00;;;21.80;79.10;;;;;;5076182;28;20438;-75
2022/08/02 06:48:18;;;;;;;6.77;3.60;;;21.90;78.00;;;;;;5075647;28;20449;-74
2022/08/02 06:50:45;;;;;;;6.77;3.83;;;22.10;77.70;;;;;;5075512;28;20453;-74
2022/08/02 06:53:12;;;;;;;8.17;3.80;;;22.20;76.90;;;;;;5075549;28;20473;-75
2022/08/02 06:55:39;;;;;;;5.43;3.60;;;22.40;76.50;;;;;;5075499;28;20453;-75
2022/08/02 06:58:06;;;;;;;4.03;3.60;;;22.50;75.30;;;;;;5075473;28;20452;-73
2022/08/02 07:00:34;;;;;;;5.80;3.03;;;22.60;74.60;;;;;;5075405;28;20445;-73
2022/08/02 07:03:01;;;;;;;6.23;2.77;;;22.80;73.60;;;;;;5075373;28;20895;-73
2022/08/02 07:05:28;;;;;;;7.60;3.70;;;22.90;72.80;;;;;;5075140;28;21007;-73
2022/08/02 07:07:56;;;;;;;9.17;3.07;;;23.10;71.30;;;;;;5075133;28;20973;-73
2022/08/02 07:10:23;;;;;;;6.87;3.33;;;23.20;70.30;;;;;;5075291;28;20502;-73
2022/08/02 07:12:49;;;;;;;10.87;3.37;;;23.20;69.90;;;;;;5074980;28;20465;-73
2022/08/02 07:15:16;;;;;;;7.10;3.07;;;23.30;70.20;;;;;;5075252;28;20453;-73
2022/08/02 07:17:44;;;;;;;7.97;3.60;;;23.40;69.70;;;;;;5074999;28;20965;-73
2022/08/02 07:20:12;;;;;;;7.80;2.70;;;23.60;69.20;;;;;;5075133;28;20461;-72
2022/08/02 07:22:39;;;;;;;6.90;2.80;;;23.70;68.30;;;;;;5074935;28;20452;-73
2022/08/02 07:25:07;;;;;;;4.93;2.70;;;23.90;67.60;;;;;;5075358;28;20433;-71
2022/08/02 07:27:34;;;;;;;9.33;3.10;;;24.10;66.50;;;;;;5076155;28;20811;-70
2022/08/02 07:30:01;;;;;;;9.60;3.27;;;24.40;65.50;;;;;;5075305;28;20488;-70
2022/08/02 07:32:30;;;;;;;7.43;2.90;;;24.50;63.20;;;;;;5075365;28;20449;-70
2022/08/02 07:35:00;;;;;;;4.57;2.13;;;24.60;62.40;;;;;;5075121;28;20467;-70
2022/08/02 07:37:29;;;;;;;10.77;2.50;;;24.80;61.80;;;;;;5074970;28;20866;-70
2022/08/02 07:39:55;;;;;;;7.43;3.20;;;25.00;61.30;;;;;;5074925;28;20449;-70
2022/08/02 07:42:23;;;;;;;10.27;2.40;;;25.10;60.30;;;;;;5074029;28;20453;-70
2022/08/02 07:44:50;;;;;;;4.23;2.47;;;25.20;60.20;;;;;;5074976;28;20476;-70
2022/08/02 07:47:17;;;;;;;5.80;2.50;;;25.40;60.60;;;;;;5075191;28;20475;-70
2022/08/02 07:49:44;;;;;;;7.80;2.83;;;25.50;59.30;;;;;;5075117;28;20469;-70
2022/08/02 07:52:13;;;;;;;2.87;2.20;;;25.70;60.10;;;;;;5074842;28;20453;-70
2022/08/02 07:54:40;;;;;;;3.53;2.93;;;25.80;58.70;;;;;;5074920;28;20465;-70
2022/08/02 07:57:06;;;;;;;2.87;2.53;;;26.00;57.90;;;;;;5075051;28;20452;-71
2022/08/02 07:59:33;;;;;;;4.30;2.60;;;26.20;57.20;;;;;;5075280;28;20445;-70
2022/08/02 08:02:00;;;;;;;5.73;3.33;;;26.40;57.80;;;;;;5074993;28;20948;-71
2022/08/02 08:04:26;;;;;;;7.27;3.13;;;26.50;57.00;;;;;;5075048;28;20989;-70
2022/08/02 08:06:54;;;;;;;4.23;3.50;;;26.60;57.20;;;;;;5075264;28;20449;-70
2022/08/02 08:09:22;;;;;;;5.33;3.40;;;26.70;57.00;;;;;;5074918;28;20496;-71
2022/08/02 08:11:49;;;;;;;6.57;3.03;;;26.70;56.00;;;;;;5074814;28;20453;-70
2022/08/02 08:14:16;;;;;;;5.70;3.13;;;26.80;56.50;;;;;;5074964;28;20479;-70
2022/08/02 08:16:43;;;;;;;6.07;3.13;;;26.80;57.50;;;;;;5074618;28;20487;-70
2022/08/02 08:19:10;;;;;;;6.37;3.40;;;26.90;56.10;;;;;;5074698;28;20441;-71
2022/08/02 08:21:36;;;;;;;6.73;3.13;;;27.10;54.90;;;;;;5074650;28;20479;-70
2022/08/02 08:24:05;;;;;;;7.00;2.73;;;27.30;54.40;;;;;;5074575;28;20472;-71
2022/08/02 08:26:33;;;;;;;4.07;3.70;;;27.60;54.20;;;;;;5074590;28;20463;-71
2022/08/02 08:29:00;;;;;;;5.87;3.60;;;27.90;53.20;;;;;;5074099;28;21056;-71
2022/08/02 08:31:27;;;;;;;5.40;3.77;;;28.20;53.00;;;;;;5074380;28;20468;-71
2022/08/02 08:33:55;;;;;;;3.80;3.10;;;28.40;52.30;;;;;;5073797;28;20476;-70
2022/08/02 08:36:22;;;;;;;6.17;3.30;;;28.50;51.50;;;;;;5073968;28;20489;-71
2022/08/02 08:38:49;;;;;;;4.20;3.80;;;28.70;51.20;;;;;;5074034;28;20449;-71
2022/08/02 08:41:16;;;;;;;7.20;3.40;;;28.70;51.20;;;;;;5074014;28;20453;-71
2022/08/02 08:43:45;;;;;;;4.47;2.83;;;28.70;50.80;;;;;;5074173;28;20476;-71
2022/08/02 08:46:17;;;;;;;4.00;3.40;;;28.70;52.50;;;;;;5073976;28;20456;-71
2022/08/02 08:48:48;;;;;;;3.30;3.00;;;28.70;51.20;;;;;;5073970;28;20437;-71
2022/08/02 08:51:19;;;;;;;3.63;3.00;;;28.70;50.50;;;;;;5074460;28;20428;-71
2022/08/02 08:53:49;;;;;;;3.27;3.00;;;28.80;49.90;;;;;;5073493;28;20464;-71
2022/08/02 08:56:16;;;;;;;3.43;3.23;;;29.00;50.20;;;;;;5074692;28;20436;-71
2022/08/02 08:58:47;;;;;;;5.93;3.50;;;29.20;49.30;;;;;;5073325;28;20869;-71
2022/08/02 09:01:15;;;;;;;5.20;3.10;;;29.30;49.80;;;;;;5074415;28;20801;-71
2022/08/02 09:03:42;;;;;;;3.20;2.90;;;29.50;48.70;;;;;;5074156;28;20476;-71
2022/08/02 09:06:09;;;;;;;3.93;2.43;;;29.70;48.40;;;;;;5074230;28;20447;-71
2022/08/02 09:08:35;;;;;;;3.63;2.90;;;30.00;48.00;;;;;;5074057;28;20448;-71
2022/08/02 09:11:12;;;;;;;4.50;3.00;;;30.50;48.20;;;;;;5073744;28;21035;-71
2022/08/02 09:13:48;;;;;;;4.80;2.90;;;30.80;46.90;;;;;;5073765;28;20495;-71
2022/08/02 09:16:28;;;;;;;2.90;2.50;;;31.10;46.80;;;;;;5093664;28;20491;-71
2022/08/02 09:18:55;;;;;;;3.77;2.70;;;31.30;44.90;;;;;;5094351;28;20795;-71
2022/08/02 09:21:21;;;;;;;5.97;2.30;;;31.10;43.50;;;;;;5094055;28;20455;-71
2022/08/02 09:23:50;;;;;;;2.63;2.43;;;30.60;43.30;;;;;;5094053;28;20843;-71
2022/08/02 09:26:19;;;;;;;2.30;2.10;;;30.00;45.30;;;;;;5094240;28;20456;-71
2022/08/02 09:28:49;;;;;;;3.17;2.70;;;29.70;46.70;;;;;;5094114;28;20967;-71
2022/08/02 09:31:21;;;;;;;2.97;2.23;;;29.60;47.00;;;;;;5094267;28;20533;-71
2022/08/02 09:33:53;;;;;;;3.47;2.50;;;29.50;48.60;;;;;;5094177;28;20466;-70
2022/08/02 09:36:20;;;;;;;3.80;2.73;;;29.40;47.70;;;;;;5094331;28;20436;-70
2022/08/02 09:38:56;;;;;;;3.33;2.40;;;29.40;47.00;;;;;;5094043;28;20466;-71
2022/08/02 09:41:24;;;;;;;5.80;2.50;;;29.30;47.90;;;;;;5093996;28;20451;-71
2022/08/02 09:43:51;;;;;;;6.00;2.30;;;29.40;47.60;;;;;;5094503;28;20848;-70
2022/08/02 09:46:21;;;;;;;2.93;2.43;;;29.50;48.40;;;;;;5094043;28;20481;-70
2022/08/02 09:48:52;;;;;;;3.40;2.43;;;29.80;47.00;;;;;;5094180;28;20451;-70
2022/08/02 09:51:21;;;;;;;2.87;2.37;;;29.90;46.30;;;;;;5093449;28;20479;-70
2022/08/02 09:53:52;;;;;;;4.10;2.40;;;30.20;46.80;;;;;;5094195;28;20482;-71
2022/08/02 09:56:20;;;;;;;3.67;2.73;;;30.40;45.00;;;;;;5093874;28;20436;-71
2022/08/02 09:58:48;;;;;;;3.23;2.30;;;30.50;43.70;;;;;;5093928;28;20451;-71
2022/08/02 10:01:15;;;;;;;2.93;2.20;;;30.70;44.00;;;;;;5094061;28;20475;-71
2022/08/02 10:03:56;;;;;;;2.90;2.60;;;31.00;43.10;;;;;;5094284;28;20482;-70
2022/08/02 10:06:23;;;;;;;3.90;2.40;;;31.40;42.20;;;;;;5095799;28;20455;-71
2022/08/02 10:08:52;;;;;;;3.10;2.43;;;31.70;41.80;;;;;;5097253;28;20448;-71
2022/08/02 10:11:19;;;;;;;3.03;2.13;;;31.70;41.20;;;;;;5096927;28;20475;-71
2022/08/02 10:13:47;;;;;;;2.63;2.40;;;31.30;42.20;;;;;;5097201;28;20485;-71
2022/08/02 10:16:15;;;;;;;2.57;2.20;;;30.90;41.90;;;;;;5097046;28;20947;-71
2022/08/02 10:18:42;;;;;;;2.67;2.47;;;30.90;41.30;;;;;;5097400;28;20483;-71
2022/08/02 10:21:14;;;;;;;5.73;2.83;;;30.90;42.20;;;;;;5097068;28;20819;-70
2022/08/02 10:23:43;;;;;;;2.23;2.03;;;31.30;42.40;;;;;;5097104;28;20471;-70
2022/08/02 10:26:15;;;;;;;3.77;2.30;;;31.70;41.30;;;;;;5096927;28;20940;-71
2022/08/02 10:28:44;;;;;;;4.40;2.20;;;32.20;41.10;;;;;;5097097;28;20436;-70
2022/08/02 10:31:12;;;;;;;4.03;2.30;;;32.40;39.20;;;;;;5097213;28;20487;-71
2022/08/02 10:33:40;;;;;;;5.70;2.50;;;32.50;39.40;;;;;;5096784;28;20478;-70
2022/08/02 10:36:08;;;;;;;3.50;2.27;;;32.80;39.70;;;;;;5097125;28;20443;-71
2022/08/02 10:38:38;;;;;;;2.70;2.43;;;33.10;37.70;;;;;;5096813;28;20480;-71
2022/08/02 10:41:06;;;;;;;6.33;2.70;;;33.30;39.40;;;;;;5096811;28;20439;-70
2022/08/02 10:43:47;;;;;;;4.30;2.27;;;33.10;37.30;;;;;;5096921;28;20849;-71
2022/08/02 10:46:30;;;;;;;2.73;2.53;;;32.80;38.60;;;;;;5097000;28;20927;-71
2022/08/02 10:49:18;;;;;;;2.87;2.57;;;32.60;38.40;;;;;;5096834;28;20467;-70
2022/08/02 10:52:15;;;;;;;3.33;2.40;;;32.60;38.10;;;;;;5089487;28;20935;-71
2022/08/02 10:54:48;;;;;;;2.87;2.10;;;33.00;38.50;;;;;;4994625;28;20841;-71
2022/08/02 10:57:18;;;;;;;4.20;2.67;;;33.30;36.50;;;;;;5076804;28;20948;-71
2022/08/02 10:59:45;;;;;;;4.33;2.30;;;33.60;35.30;;;;;;5096928;28;20440;-71
2022/08/02 11:02:13;;;;;;;4.10;2.30;;;34.20;35.00;;;;;;5096944;28;20548;-71
2022/08/02 11:05:06;;;;;;;3.47;2.30;;;34.70;33.20;;;;;;5096419;28;20472;-71
2022/08/02 11:07:37;;;;;;;2.70;2.07;;;35.50;31.60;;;;;;5096557;28;20455;-71
2022/08/02 11:10:43;;;;;;;2.50;2.30;;;36.10;30.50;;;;;;5096851;28;20479;-71
2022/08/02 11:13:25;;;;;;;2.30;2.10;;;36.50;30.40;;;;;;5095928;28;20857;-71
2022/08/02 11:16:00;;;;;;;2.83;2.33;;;36.20;30.20;;;;;;5096814;28;20454;-71
2022/08/02 11:19:01;;;;;;;5.77;2.40;;;35.80;31.30;;;;;;5099878;28;20435;-71
2022/08/02 11:21:29;;;;;;;2.40;2.20;;;35.20;32.50;;;;;;5109839;28;20457;-71
2022/08/02 11:23:56;;;;;;;3.30;2.63;;;34.30;33.50;;;;;;5107008;28;20471;-71
2022/08/02 11:26:43;;;;;;;4.20;2.40;;;34.10;34.10;;;;;;5108217;28;20455;-71
2022/08/02 11:29:11;;;;;;;2.70;2.50;;;34.60;33.10;;;;;;5107996;28;20481;-71
2022/08/02 11:31:40;;;;;;;5.33;2.40;;;34.90;31.10;;;;;;5114184;28;20475;-70
2022/08/02 11:34:07;;;;;;;3.00;2.53;;;35.20;30.50;;;;;;5109766;28;20464;-71
2022/08/02 11:36:42;;;;;;;3.00;2.27;;;35.60;29.50;;;;;;5108351;28;20428;-71
2022/08/02 11:39:10;;;;;;;5.60;2.50;;;36.00;29.00;;;;;;5120658;28;20435;-69
2022/08/02 11:41:37;;;;;;;3.37;2.50;;;36.20;28.90;;;;;;5110588;28;20443;-70
2022/08/02 11:44:04;;;;;;;2.60;2.17;;;36.30;28.80;;;;;;5095715;28;20475;-70
2022/08/02 11:46:33;;;;;;;6.03;2.50;;;36.60;28.70;;;;;;5095765;28;20451;-71
2022/08/02 11:49:12;;;;;;;4.17;2.57;;;36.70;28.50;;;;;;5095182;28;20825;-71
2022/08/02 11:51:38;;;;;;;5.70;2.63;;;36.70;28.80;;;;;;5095518;28;20209;-71
2022/08/02 11:54:05;;;;;;;5.87;2.23;;;36.60;29.40;;;;;;5094972;28;20275;-71
2022/08/02 11:56:32;;;;;;;2.93;2.50;;;36.00;29.40;;;;;;5095167;28;20454;-71
2022/08/02 11:59:05;;;;;;;3.00;2.53;;;35.50;29.80;;;;;;5095216;28;20453;-71
2022/08/02 12:01:35;;;;;;;3.20;2.40;;;34.90;30.90;;;;;;5078611;28;20431;-71
2022/08/02 12:04:02;;;;;;;9.13;3.00;;;34.50;32.30;;;;;;5095178;28;20475;-71
2022/08/02 12:06:30;;;;;;;5.33;2.80;;;34.30;32.70;;;;;;5096096;28;20447;-71
2022/08/02 12:09:04;;;;;;;3.00;2.70;;;34.10;32.50;;;;;;5095418;28;20439;-71
2022/08/02 12:11:31;;;;;;;3.57;2.80;;;33.80;33.20;;;;;;5095201;28;20474;-71
2022/08/02 12:13:58;;;;;;;6.33;3.00;;;33.70;33.50;;;;;;5094285;28;20475;-70
2022/08/02 12:19:22;;;;;;;2.80;2.60;;;33.70;32.40;;;;;;5095136;28;20427;-71
2022/08/02 12:22:06;;;;;;;3.33;2.30;;;33.80;33.70;;;;;;5095399;28;20486;-70
2022/08/02 12:24:32;;;;;;;2.97;2.70;;;34.30;32.70;;;;;;5094781;28;20478;-70
2022/08/02 12:26:59;;;;;;;4.00;2.60;;;35.10;31.80;;;;;;5094990;28;20449;-71
2022/08/02 12:29:30;;;;;;;8.47;2.80;;;36.00;30.80;;;;;;5093958;28;20451;-71
2022/08/02 12:31:57;;;;;;;3.70;2.20;;;36.80;29.10;;;;;;5094304;28;20475;-71
2022/08/02 12:34:27;;;;;;;2.33;2.23;;;37.10;28.20;;;;;;5094325;28;20467;-71
2022/08/02 12:37:05;;;;;;;2.87;2.10;;;36.80;28.40;;;;;;5094524;28;20204;-71
2022/08/02 12:39:41;;;;;;;2.90;2.57;;;36.60;29.20;;;;;;5094836;28;20467;-71
2022/08/02 12:42:09;;;;;;;3.70;2.50;;;36.50;29.70;;;;;;5094507;28;20204;-71
2022/08/02 12:44:38;;;;;;;6.47;2.93;;;36.60;29.40;;;;;;5094228;28;20467;-71
2022/08/02 12:47:08;;;;;;;3.00;2.40;;;36.70;29.20;;;;;;5094201;28;20201;-71
2022/08/02 12:49:36;;;;;;;5.60;2.53;;;37.00;28.40;;;;;;5094201;28;20237;-71
2022/08/02 12:52:18;;;;;;;2.43;2.20;;;37.50;28.90;;;;;;5094348;28;20251;-71
2022/08/02 12:54:47;;;;;;;5.30;2.33;;;38.00;27.90;;;;;;5094236;28;20225;-71
2022/08/02 12:57:16;;;;;;;3.42;2.45;;;38.70;27.80;;;;;;5094297;28;20723;-71
2022/08/02 12:59:48;;;;;;;2.40;2.20;;;39.20;27.20;;;;;;5094757;28;20673;-71